S C — FGF7634 — position and weather

sailwx.info

Track history (hours):
 
Tides and Currents Weather Stations Pressure Air Temp Water Temp Dewpoint Dewpoint Depression Visibility Wind Speed Wind Dir Waves Ship Positions

S C

Last reported at 2016-May-04 09:33 UTC. Time now 2016-May-04 09:47 UTC.
Position N 49°29' E 000°07'.

; draft 1 m.

Type: Pilot. MMSI: 227001820.

Date/timePositionNaut miles runAvg speedWind from/ knotsBaromVisibWave heightAir tempDewpointWater temp
2016-May-04 09:33N 49°29' E 000°07'0 0.0
2016-May-04 08:33N 49°29' E 000°07'0 0.0
2016-May-04 07:33N 49°29' E 000°07'0 0.1
2016-May-04 06:33N 49°29' E 000°07'0 0.1
2016-May-04 05:34N 49°29' E 000°07'4 4.3
2016-May-04 04:33N 49°30' E 000°00'4 4.3
2016-May-04 03:33N 49°29' E 000°07'9 9.3
2016-May-04 02:34N 49°32' W 000°07'9 9.3
2016-May-04 01:33N 49°29' E 000°07'0 0.0
2016-May-04 00:33N 49°29' E 000°07'0 0.0
2016-May-03 23:33N 49°29' E 000°07'0 0.0
2016-May-03 22:33N 49°29' E 000°07'0 0.0
2016-May-03 21:33N 49°29' E 000°07'0 0.0
2016-May-03 20:33N 49°29' E 000°07'0 0.0
2016-May-03 19:33N 49°29' E 000°07'3 3.0
2016-May-03 18:34N 49°30' E 000°02'5 4.9
2016-May-03 17:34N 49°32' W 000°05'8 7.9
2016-May-03 16:33N 49°29' E 000°07'0 0.0
2016-May-03 15:34N 49°29' E 000°07'0 0.0
2016-May-03 14:34N 49°29' E 000°07'0 0.0
2016-May-03 13:34N 49°29' E 000°07'5 5.3
2016-May-03 12:34N 49°30' W 000°01'5 5.3
2016-May-03 11:33N 49°29' E 000°07'0 0.0
2016-May-03 10:33N 49°29' E 000°07'0 0.4
2016-May-03 09:34N 49°29' E 000°06'0 0.4
2016-May-03 08:34N 49°29' E 000°07'0 0.0
2016-May-03 07:34N 49°29' E 000°07'0 0.0
2016-May-03 06:29N 49°29' E 000°07'0 0.0
2016-May-03 05:33N 49°29' E 000°07'0 0.0
2016-May-03 04:33N 49°29' E 000°07'9 9.0
2016-May-03 03:34N 49°31' W 000°07'9 9.0
2016-May-03 02:33N 49°29' E 000°07'6 6.2
2016-May-03 01:34N 49°30' W 000°03'6 6.2
2016-May-03 00:33N 49°29' E 000°07'0 0.0
2016-May-02 23:33N 49°29' E 000°07'0 0.0
2016-May-02 22:33N 49°29' E 000°07'1 0.6
2016-May-02 21:34N 49°29' E 000°06'3 3.0
2016-May-02 20:33N 49°30' E 000°02'1 0.8
2016-May-02 19:33N 49°30' E 000°03'4 3.8
2016-May-02 18:33N 49°31' W 000°03'6 6.2
2016-May-02 17:33N 49°29' E 000°06'0 0.3
2016-May-02 16:33N 49°29' E 000°07'0 0.0
2016-May-02 15:33N 49°29' E 000°07'0 0.0
2016-May-02 14:33N 49°29' E 000°07'0 0.1
2016-May-02 13:33N 49°29' E 000°07'0 0.1
2016-May-02 12:33N 49°29' E 000°07'7 7.5
2016-May-02 11:33N 49°31' W 000°04'7 7.5
2016-May-02 10:33N 49°29' E 000°07'0 0.2
2016-May-02 09:33N 49°29' E 000°07'0 0.2
2016-May-02 08:33N 49°29' E 000°07'0 0.0
2016-May-02 07:33N 49°29' E 000°07'0 0.0
2016-May-02 06:33N 49°29' E 000°07'0 0.0
2016-May-02 05:33N 49°29' E 000°07'0 0.0
2016-May-02 04:33N 49°29' E 000°07'0 0.0
2016-May-02 03:33N 49°29' E 000°07'0 0.0
2016-May-02 02:33N 49°29' E 000°07'8 7.9
2016-May-02 01:33N 49°31' W 000°05'8 7.9
2016-May-02 00:33N 49°29' E 000°07'8 8.4
2016-May-01 23:33N 49°31' W 000°06'8 8.4
2016-May-01 22:33N 49°29' E 000°07'0 0.0
2016-May-01 21:33N 49°29' E 000°07'0 0.0
2016-May-01 20:33N 49°29' E 000°07'0 0.0
2016-May-01 19:33N 49°29' E 000°07'0 0.0
2016-May-01 18:33N 49°29' E 000°07'0 0.3
2016-May-01 17:34N 49°29' E 000°06'0 0.3
2016-May-01 16:33N 49°29' E 000°07'0 0.0
2016-May-01 15:33N 49°29' E 000°07'0 0.0
2016-May-01 14:34N 49°29' E 000°07'0 0.0
2016-May-01 13:33N 49°29' E 000°07'0 0.0
2016-May-01 12:33N 49°29' E 000°07'0 0.0
2016-May-01 11:33N 49°29' E 000°07'3 3.2
2016-May-01 10:33N 49°30' E 000°02'3 3.2
2016-May-01 09:34N 49°29' E 000°07'0 0.0
2016-May-01 08:34N 49°29' E 000°07'0 0.0
2016-May-01 07:33N 49°29' E 000°07'3 2.6
2016-May-01 06:33N 49°30' E 000°03'3 2.6
2016-May-01 05:33N 49°29' E 000°07'0 0.1
2016-May-01 04:33N 49°29' E 000°07'0 0.0
2016-May-01 03:33N 49°29' E 000°07'3 3.4
2016-May-01 02:33N 49°30' E 000°02'3 3.5
2016-May-01 01:34N 49°29' E 000°07'0 0.0
2016-May-01 00:34N 49°29' E 000°07'0 0.0
2016-Apr-30 23:34N 49°29' E 000°07'0 0.0
2016-Apr-30 22:34N 49°29' E 000°07'0 0.0
2016-Apr-30 21:33N 49°29' E 000°07'6 6.1
2016-Apr-30 20:33N 49°30' W 000°02'6 6.0
2016-Apr-30 19:33N 49°29' E 000°07'0 0.0
2016-Apr-30 18:34N 49°29' E 000°07'1 1.4
2016-Apr-30 17:34N 49°29' E 000°05'1 1.4
2016-Apr-30 16:33N 49°29' E 000°07'0 0.0
2016-Apr-30 15:33N 49°29' E 000°07'0 0.0
2016-Apr-30 14:33N 49°29' E 000°07'4 4.1
2016-Apr-30 13:33N 49°30' E 000°01'4 4.1
2016-Apr-30 12:34N 49°29' E 000°07'0 0.0
2016-Apr-30 11:33N 49°29' E 000°07'0 0.0
2016-Apr-30 10:33N 49°29' E 000°07'7 7.2
2016-Apr-30 09:34N 49°31' W 000°04'7 7.2
2016-Apr-30 08:34N 49°29' E 000°07'0 0.0
2016-Apr-30 07:33N 49°29' E 000°07'0 0.1
2016-Apr-30 06:33N 49°29' E 000°07'4 3.7
2016-Apr-30 05:34N 49°30' E 000°01'2 1.8
2016-Apr-30 04:33N 49°30' E 000°04'3 3.3
2016-Apr-30 03:33N 49°30' W 000°01'5 5.2
2016-Apr-30 02:33N 49°29' E 000°07'0 0.0
2016-Apr-30 01:33N 49°29' E 000°07'2 1.8
2016-Apr-30 00:33N 49°29' E 000°04'2 1.8
2016-Apr-29 23:34N 49°29' E 000°07'3 3.3
2016-Apr-29 22:34N 49°30' E 000°02'3 3.3
2016-Apr-29 21:33N 49°29' E 000°07'0 0.0
2016-Apr-29 20:33N 49°29' E 000°07'9 9.1
2016-Apr-29 19:33N 49°32' W 000°06'9 9.1
2016-Apr-29 18:34N 49°29' E 000°07'0 0.0
2016-Apr-29 17:33N 49°29' E 000°07'0 0.0
2016-Apr-29 16:33N 49°29' E 000°07'0 0.0
2016-Apr-29 15:33N 49°29' E 000°07'0 0.0
2016-Apr-29 14:33N 49°29' E 000°07'0 0.0
2016-Apr-29 13:33N 49°29' E 000°07'1 1.5
2016-Apr-29 12:33N 49°29' E 000°05'1 1.5
2016-Apr-29 11:33N 49°29' E 000°07'0 0.0
2016-Apr-29 10:33N 49°29' E 000°07'0 0.0
2016-Apr-29 09:33N 49°29' E 000°07'0 0.0
2016-Apr-29 08:33N 49°29' E 000°07'1 1.3
2016-Apr-29 07:33N 49°29' E 000°05'1 1.3
2016-Apr-29 06:33N 49°29' E 000°07'0 0.0
2016-Apr-29 05:33N 49°29' E 000°07'0 0.0
2016-Apr-29 04:33N 49°29' E 000°07'0 0.0
2016-Apr-29 03:33N 49°29' E 000°07'1 0.8
2016-Apr-29 02:33N 49°29' E 000°06'1 0.8
2016-Apr-29 01:33N 49°29' E 000°07'0 0.0
2016-Apr-29 00:33N 49°29' E 000°07'0 0.0
2016-Apr-28 23:33N 49°29' E 000°07'0 0.0
2016-Apr-28 22:33N 49°29' E 000°07'0 0.0
2016-Apr-28 21:33N 49°29' E 000°07'0 0.0
2016-Apr-28 20:33N 49°29' E 000°07'0 0.0
2016-Apr-28 19:33N 49°29' E 000°07'0 0.0
2016-Apr-28 18:33N 49°29' E 000°07'0 0.0
2016-Apr-28 17:33N 49°29' E 000°07'0 0.0
2016-Apr-28 16:33N 49°29' E 000°07'0 0.0
2016-Apr-28 15:33N 49°29' E 000°07'5 4.9
2016-Apr-28 14:33N 49°30' W 000°00'5 4.9
2016-Apr-28 13:33N 49°29' E 000°07'0 0.0
2016-Apr-28 12:34N 49°29' E 000°07'0 0.0
2016-Apr-28 11:33N 49°29' E 000°07'0 0.0
2016-Apr-28 10:34N 49°29' E 000°07'0 0.0
2016-Apr-28 09:33N 49°29' E 000°07'0 0.0
2016-Apr-28 08:34N 49°29' E 000°07'0 0.0
2016-Apr-28 07:33N 49°29' E 000°07'0 0.0
2016-Apr-28 06:33N 49°29' E 000°07'0 0.0
2016-Apr-28 05:34N 49°29' E 000°07'4 4.0
2016-Apr-28 04:34N 49°30' E 000°01'4 3.8
2016-Apr-28 03:34N 49°29' E 000°06'0 0.2
2016-Apr-28 02:33N 49°29' E 000°07'0 0.0
2016-Apr-28 01:33N 49°29' E 000°07'0 0.0
2016-Apr-28 00:33N 49°29' E 000°07'0 0.1
2016-Apr-27 23:33N 49°29' E 000°07'0 0.1
2016-Apr-27 22:33N 49°29' E 000°07'0 0.0
2016-Apr-27 21:33N 49°29' E 000°07'0 0.0
2016-Apr-27 20:33N 49°29' E 000°07'2 2.2
2016-Apr-27 19:34N 49°29' E 000°03'1 1.1
2016-Apr-27 18:33N 49°29' E 000°05'1 1.1
2016-Apr-27 17:33N 49°29' E 000°07'0 0.0
2016-Apr-27 16:33N 49°29' E 000°07'1 1.0
2016-Apr-27 15:33N 49°29' E 000°05'7 7.1
2016-Apr-27 14:33N 49°32' W 000°05'8 8.1
2016-Apr-27 13:33N 49°29' E 000°07'0 0.0
2016-Apr-27 12:33N 49°29' E 000°07'0 0.0
2016-Apr-27 11:33N 49°29' E 000°07'7 6.9
2016-Apr-27 10:33N 49°31' W 000°03'7 6.9
2016-Apr-27 09:34N 49°29' E 000°07'0 0.0
2016-Apr-26 08:34N 49°29' E 000°07'  
Track history (hours):
 
Tides and Currents Weather Stations Pressure Air Temp Water Temp Dewpoint Dewpoint Depression Visibility Wind Speed Wind Dir Waves Ship Positions

S C

Last reported at 2016-May-04 09:33 UTC. Time now 2016-May-04 09:47 UTC.
Position N 49°29' E 000°07'.

; draft 1 m.

Type: Pilot. MMSI: 227001820.

Date/timePositionNaut miles runAvg speedWind from/ knotsBaromVisibWave heightAir tempDewpointWater temp
2016-May-04 09:33N 49°29' E 000°07'0 0.0
2016-May-04 08:33N 49°29' E 000°07'0 0.0
2016-May-04 07:33N 49°29' E 000°07'0 0.1
2016-May-04 06:33N 49°29' E 000°07'0 0.1
2016-May-04 05:34N 49°29' E 000°07'4 4.3
2016-May-04 04:33N 49°30' E 000°00'4 4.3
2016-May-04 03:33N 49°29' E 000°07'9 9.3
2016-May-04 02:34N 49°32' W 000°07'9 9.3
2016-May-04 01:33N 49°29' E 000°07'0 0.0
2016-May-04 00:33N 49°29' E 000°07'0 0.0
2016-May-03 23:33N 49°29' E 000°07'0 0.0
2016-May-03 22:33N 49°29' E 000°07'0 0.0
2016-May-03 21:33N 49°29' E 000°07'0 0.0
2016-May-03 20:33N 49°29' E 000°07'0 0.0
2016-May-03 19:33N 49°29' E 000°07'3 3.0
2016-May-03 18:34N 49°30' E 000°02'5 4.9
2016-May-03 17:34N 49°32' W 000°05'8 7.9
2016-May-03 16:33N 49°29' E 000°07'0 0.0
2016-May-03 15:34N 49°29' E 000°07'0 0.0
2016-May-03 14:34N 49°29' E 000°07'0 0.0
2016-May-03 13:34N 49°29' E 000°07'5 5.3
2016-May-03 12:34N 49°30' W 000°01'5 5.3
2016-May-03 11:33N 49°29' E 000°07'0 0.0
2016-May-03 10:33N 49°29' E 000°07'0 0.4
2016-May-03 09:34N 49°29' E 000°06'0 0.4
2016-May-03 08:34N 49°29' E 000°07'0 0.0
2016-May-03 07:34N 49°29' E 000°07'0 0.0
2016-May-03 06:29N 49°29' E 000°07'0 0.0
2016-May-03 05:33N 49°29' E 000°07'0 0.0
2016-May-03 04:33N 49°29' E 000°07'9 9.0
2016-May-03 03:34N 49°31' W 000°07'9 9.0
2016-May-03 02:33N 49°29' E 000°07'6 6.2
2016-May-03 01:34N 49°30' W 000°03'6 6.2
2016-May-03 00:33N 49°29' E 000°07'0 0.0
2016-May-02 23:33N 49°29' E 000°07'0 0.0
2016-May-02 22:33N 49°29' E 000°07'1 0.6
2016-May-02 21:34N 49°29' E 000°06'3 3.0
2016-May-02 20:33N 49°30' E 000°02'1 0.8
2016-May-02 19:33N 49°30' E 000°03'4 3.8
2016-May-02 18:33N 49°31' W 000°03'6 6.2
2016-May-02 17:33N 49°29' E 000°06'0 0.3
2016-May-02 16:33N 49°29' E 000°07'0 0.0
2016-May-02 15:33N 49°29' E 000°07'0 0.0
2016-May-02 14:33N 49°29' E 000°07'0 0.1
2016-May-02 13:33N 49°29' E 000°07'0 0.1
2016-May-02 12:33N 49°29' E 000°07'7 7.5
2016-May-02 11:33N 49°31' W 000°04'7 7.5
2016-May-02 10:33N 49°29' E 000°07'0 0.2
2016-May-02 09:33N 49°29' E 000°07'0 0.2
2016-May-02 08:33N 49°29' E 000°07'0 0.0
2016-May-02 07:33N 49°29' E 000°07'0 0.0
2016-May-02 06:33N 49°29' E 000°07'0 0.0
2016-May-02 05:33N 49°29' E 000°07'0 0.0
2016-May-02 04:33N 49°29' E 000°07'0 0.0
2016-May-02 03:33N 49°29' E 000°07'0 0.0
2016-May-02 02:33N 49°29' E 000°07'8 7.9
2016-May-02 01:33N 49°31' W 000°05'8 7.9
2016-May-02 00:33N 49°29' E 000°07'8 8.4
2016-May-01 23:33N 49°31' W 000°06'8 8.4
2016-May-01 22:33N 49°29' E 000°07'0 0.0
2016-May-01 21:33N 49°29' E 000°07'0 0.0
2016-May-01 20:33N 49°29' E 000°07'0 0.0
2016-May-01 19:33N 49°29' E 000°07'0 0.0
2016-May-01 18:33N 49°29' E 000°07'0 0.3
2016-May-01 17:34N 49°29' E 000°06'0 0.3
2016-May-01 16:33N 49°29' E 000°07'0 0.0
2016-May-01 15:33N 49°29' E 000°07'0 0.0
2016-May-01 14:34N 49°29' E 000°07'0 0.0
2016-May-01 13:33N 49°29' E 000°07'0 0.0
2016-May-01 12:33N 49°29' E 000°07'0 0.0
2016-May-01 11:33N 49°29' E 000°07'3 3.2
2016-May-01 10:33N 49°30' E 000°02'3 3.2
2016-May-01 09:34N 49°29' E 000°07'0 0.0
2016-May-01 08:34N 49°29' E 000°07'0 0.0
2016-May-01 07:33N 49°29' E 000°07'3 2.6
2016-May-01 06:33N 49°30' E 000°03'3 2.6
2016-May-01 05:33N 49°29' E 000°07'0 0.1
2016-May-01 04:33N 49°29' E 000°07'0 0.0
2016-May-01 03:33N 49°29' E 000°07'3 3.4
2016-May-01 02:33N 49°30' E 000°02'3 3.5
2016-May-01 01:34N 49°29' E 000°07'0 0.0
2016-May-01 00:34N 49°29' E 000°07'0 0.0
2016-Apr-30 23:34N 49°29' E 000°07'0 0.0
2016-Apr-30 22:34N 49°29' E 000°07'0 0.0
2016-Apr-30 21:33N 49°29' E 000°07'6 6.1
2016-Apr-30 20:33N 49°30' W 000°02'6 6.0
2016-Apr-30 19:33N 49°29' E 000°07'0 0.0
2016-Apr-30 18:34N 49°29' E 000°07'1 1.4
2016-Apr-30 17:34N 49°29' E 000°05'1 1.4
2016-Apr-30 16:33N 49°29' E 000°07'0 0.0
2016-Apr-30 15:33N 49°29' E 000°07'0 0.0
2016-Apr-30 14:33N 49°29' E 000°07'4 4.1
2016-Apr-30 13:33N 49°30' E 000°01'4 4.1
2016-Apr-30 12:34N 49°29' E 000°07'0 0.0
2016-Apr-30 11:33N 49°29' E 000°07'0 0.0
2016-Apr-30 10:33N 49°29' E 000°07'7 7.2
2016-Apr-30 09:34N 49°31' W 000°04'7 7.2
2016-Apr-30 08:34N 49°29' E 000°07'0 0.0
2016-Apr-30 07:33N 49°29' E 000°07'0 0.1
2016-Apr-30 06:33N 49°29' E 000°07'4 3.7
2016-Apr-30 05:34N 49°30' E 000°01'2 1.8
2016-Apr-30 04:33N 49°30' E 000°04'3 3.3
2016-Apr-30 03:33N 49°30' W 000°01'5 5.2
2016-Apr-30 02:33N 49°29' E 000°07'0 0.0
2016-Apr-30 01:33N 49°29' E 000°07'2 1.8
2016-Apr-30 00:33N 49°29' E 000°04'2 1.8
2016-Apr-29 23:34N 49°29' E 000°07'3 3.3
2016-Apr-29 22:34N 49°30' E 000°02'3 3.3
2016-Apr-29 21:33N 49°29' E 000°07'0 0.0
2016-Apr-29 20:33N 49°29' E 000°07'9 9.1
2016-Apr-29 19:33N 49°32' W 000°06'9 9.1
2016-Apr-29 18:34N 49°29' E 000°07'0 0.0
2016-Apr-29 17:33N 49°29' E 000°07'0 0.0
2016-Apr-29 16:33N 49°29' E 000°07'0 0.0
2016-Apr-29 15:33N 49°29' E 000°07'0 0.0
2016-Apr-29 14:33N 49°29' E 000°07'0 0.0
2016-Apr-29 13:33N 49°29' E 000°07'1 1.5
2016-Apr-29 12:33N 49°29' E 000°05'1 1.5
2016-Apr-29 11:33N 49°29' E 000°07'0 0.0
2016-Apr-29 10:33N 49°29' E 000°07'0 0.0
2016-Apr-29 09:33N 49°29' E 000°07'0 0.0
2016-Apr-29 08:33N 49°29' E 000°07'1 1.3
2016-Apr-29 07:33N 49°29' E 000°05'1 1.3
2016-Apr-29 06:33N 49°29' E 000°07'0 0.0
2016-Apr-29 05:33N 49°29' E 000°07'0 0.0
2016-Apr-29 04:33N 49°29' E 000°07'0 0.0
2016-Apr-29 03:33N 49°29' E 000°07'1 0.8
2016-Apr-29 02:33N 49°29' E 000°06'1 0.8
2016-Apr-29 01:33N 49°29' E 000°07'0 0.0
2016-Apr-29 00:33N 49°29' E 000°07'0 0.0
2016-Apr-28 23:33N 49°29' E 000°07'0 0.0
2016-Apr-28 22:33N 49°29' E 000°07'0 0.0
2016-Apr-28 21:33N 49°29' E 000°07'0 0.0
2016-Apr-28 20:33N 49°29' E 000°07'0 0.0
2016-Apr-28 19:33N 49°29' E 000°07'0 0.0
2016-Apr-28 18:33N 49°29' E 000°07'0 0.0
2016-Apr-28 17:33N 49°29' E 000°07'0 0.0
2016-Apr-28 16:33N 49°29' E 000°07'0 0.0
2016-Apr-28 15:33N 49°29' E 000°07'5 4.9
2016-Apr-28 14:33N 49°30' W 000°00'5 4.9
2016-Apr-28 13:33N 49°29' E 000°07'0 0.0
2016-Apr-28 12:34N 49°29' E 000°07'0 0.0
2016-Apr-28 11:33N 49°29' E 000°07'0 0.0
2016-Apr-28 10:34N 49°29' E 000°07'0 0.0
2016-Apr-28 09:33N 49°29' E 000°07'0 0.0
2016-Apr-28 08:34N 49°29' E 000°07'0 0.0
2016-Apr-28 07:33N 49°29' E 000°07'0 0.0
2016-Apr-28 06:33N 49°29' E 000°07'0 0.0
2016-Apr-28 05:34N 49°29' E 000°07'4 4.0
2016-Apr-28 04:34N 49°30' E 000°01'4 3.8
2016-Apr-28 03:34N 49°29' E 000°06'0 0.2
2016-Apr-28 02:33N 49°29' E 000°07'0 0.0
2016-Apr-28 01:33N 49°29' E 000°07'0 0.0
2016-Apr-28 00:33N 49°29' E 000°07'0 0.1
2016-Apr-27 23:33N 49°29' E 000°07'0 0.1
2016-Apr-27 22:33N 49°29' E 000°07'0 0.0
2016-Apr-27 21:33N 49°29' E 000°07'0 0.0
2016-Apr-27 20:33N 49°29' E 000°07'2 2.2
2016-Apr-27 19:34N 49°29' E 000°03'1 1.1
2016-Apr-27 18:33N 49°29' E 000°05'1 1.1
2016-Apr-27 17:33N 49°29' E 000°07'0 0.0
2016-Apr-27 16:33N 49°29' E 000°07'1 1.0
2016-Apr-27 15:33N 49°29' E 000°05'7 7.1
2016-Apr-27 14:33N 49°32' W 000°05'8 8.1
2016-Apr-27 13:33N 49°29' E 000°07'0 0.0
2016-Apr-27 12:33N 49°29' E 000°07'0 0.0
2016-Apr-27 11:33N 49°29' E 000°07'7 6.9
2016-Apr-27 10:33N 49°31' W 000°03'7 6.9
2016-Apr-27 09:34N 49°29' E 000°07'0 0.0
2016-Apr-26 08:34N 49°29' E 000°07'  

Dump ship's entire track history